Impacts METAR Board
IDs:

KATT - Austin/Camp Mabry(NG, TX, US

Updated at: 0200 UTC 15 Aug 2020
Potential Impact None Slight Moderate High
Time 14/14Z 14/15Z 14/16Z 14/17Z 14/18Z 14/19Z 14/20Z 14/21Z 14/22Z 14/23Z 15/00Z 15/01Z 15/02Z
Temp83 89 93 97 100 104 104 107 106 105 102 99 95
Dewpt72 70 68 66 65 63 60 57 57 55 57 57 59
Altim29.97 29.97 29.97 29.96 29.94 29.92 29.89 29.87 29.85 29.84 29.83 29.84 29.85
VIS10 10 10 10 10 10 10 10 10 10 10 10 10
CIG-- -- -- -- -- -- -- -- -- -- -- -- --
CoverCLRCLRCLRCLRCLRCLRCLRCLRCLRCLRCLRCLRCLR
FltCatVFRVFRVFRVFRVFRVFRVFRVFRVFRVFRVFRVFRVFR
WX--------------------------
WDir2100001501701701701600170
WSpd6 6 5 5 9 7 7 7 6 6 3
WGst-- -- -- -- -- -- 18 -- -- -- -- -- --
Raw hourly METARs
KATT 141351Z AUTO 21006KT 10SM CLR 28/22 A2997 RMK AO2 SLP132 T02830222 $
KATT 141451Z AUTO VRB06KT 10SM CLR 32/21 A2997 RMK AO2 SLP130 T03170211 50005
KATT 141551Z AUTO 10SM CLR 34/20 A2997 RMK AO2 SLP130 T03390200
KATT 141651Z AUTO VRB05KT 10SM CLR 36/19 A2996 RMK AO2 SLP128 T03610189
KATT 141751Z AUTO 10SM CLR 38/18 A2994 RMK AO2 SLP121 T03780183 10378 20256 58008
KATT 141851Z AUTO VRB05KT 10SM CLR 40/17 A2992 RMK AO2 SLP112 T04000172
KATT 141951Z AUTO 15009G18KT 10SM CLR 40/16 A2989 RMK AO2 SLP104 T04000156 $
KATT 142051Z AUTO 17007KT 140V210 10SM CLR 42/14 A2987 RMK AO2 SLP097 T04170139 56023 $
KATT 142151Z AUTO 17007KT 140V200 10SM CLR 41/14 A2985 RMK AO2 SLP090 T04110139 $
KATT 142251Z AUTO 17007KT 10SM CLR 41/13 A2984 RMK AO2 SLP086 T04060128 $
KATT 142351Z AUTO 16006KT 10SM CLR 39/14 A2983 RMK AO2 SLP083 T03890139 10417 20372 56016 $
KATT 150051Z AUTO VRB06KT 10SM CLR 37/14 A2984 RMK AO2 SLP087 T03720139 $
KATT 150151Z AUTO 17003KT 10SM CLR 35/15 A2985 RMK AO2 SLP092 T03500150 $